sensor_id;sensor_type;location;lat;lon;timestamp;P1;durP1;ratioP1;P2;durP2;ratioP2
76167;SDS011;64927;48.214;16.378;2024-01-15T00:00:10;3.58;;;1.50;;
76167;SDS011;64927;48.214;16.378;2024-01-15T00:02:39;1.70;;;1.20;;
76167;SDS011;64927;48.214;16.378;2024-01-15T00:05:05;3.95;;;1.55;;
76167;SDS011;64927;48.214;16.378;2024-01-15T00:07:30;2.28;;;1.38;;
76167;SDS011;64927;48.214;16.378;2024-01-15T00:09:56;2.85;;;1.33;;
76167;SDS011;64927;48.214;16.378;2024-01-15T00:12:22;1.90;;;1.38;;
76167;SDS011;64927;48.214;16.378;2024-01-15T00:14:47;3.88;;;1.65;;
76167;SDS011;64927;48.214;16.378;2024-01-15T00:17:13;3.95;;;1.77;;
76167;SDS011;64927;48.214;16.378;2024-01-15T00:19:38;9.30;;;2.92;;
76167;SDS011;64927;48.214;16.378;2024-01-15T00:22:04;6.15;;;2.50;;
76167;SDS011;64927;48.214;16.378;2024-01-15T00:24:30;6.43;;;2.58;;
76167;SDS011;64927;48.214;16.378;2024-01-15T00:26:55;6.63;;;2.58;;
76167;SDS011;64927;48.214;16.378;2024-01-15T00:29:21;7.40;;;2.42;;
76167;SDS011;64927;48.214;16.378;2024-01-15T00:31:47;4.50;;;2.45;;
76167;SDS011;64927;48.214;16.378;2024-01-15T00:34:12;4.60;;;1.98;;
76167;SDS011;64927;48.214;16.378;2024-01-15T00:36:38;6.78;;;2.92;;
76167;SDS011;64927;48.214;16.378;2024-01-15T00:39:06;4.47;;;2.30;;
76167;SDS011;64927;48.214;16.378;2024-01-15T00:41:31;4.15;;;2.08;;
76167;SDS011;64927;48.214;16.378;2024-01-15T00:43:57;6.65;;;2.83;;
76167;SDS011;64927;48.214;16.378;2024-01-15T00:46:22;4.13;;;2.05;;
76167;SDS011;64927;48.214;16.378;2024-01-15T00:48:48;4.80;;;2.35;;
76167;SDS011;64927;48.214;16.378;2024-01-15T00:51:14;4.97;;;2.45;;
76167;SDS011;64927;48.214;16.378;2024-01-15T00:53:39;5.18;;;1.75;;
76167;SDS011;64927;48.214;16.378;2024-01-15T00:56:05;3.85;;;1.80;;
76167;SDS011;64927;48.214;16.378;2024-01-15T00:58:31;2.90;;;1.63;;
76167;SDS011;64927;48.214;16.378;2024-01-15T01:00:56;5.32;;;2.03;;
76167;SDS011;64927;48.214;16.378;2024-01-15T01:03:22;2.72;;;2.10;;
76167;SDS011;64927;48.214;16.378;2024-01-15T01:05:53;7.22;;;2.92;;
76167;SDS011;64927;48.214;16.378;2024-01-15T01:08:18;3.13;;;2.53;;
76167;SDS011;64927;48.214;16.378;2024-01-15T01:10:44;3.85;;;2.40;;
76167;SDS011;64927;48.214;16.378;2024-01-15T01:13:10;4.90;;;1.77;;
76167;SDS011;64927;48.214;16.378;2024-01-15T01:15:35;5.70;;;2.50;;
76167;SDS011;64927;48.214;16.378;2024-01-15T01:18:01;4.53;;;2.17;;
76167;SDS011;64927;48.214;16.378;2024-01-15T01:20:32;4.15;;;1.88;;
76167;SDS011;64927;48.214;16.378;2024-01-15T01:22:58;3.53;;;2.63;;
76167;SDS011;64927;48.214;16.378;2024-01-15T01:25:24;4.40;;;1.80;;
76167;SDS011;64927;48.214;16.378;2024-01-15T01:27:51;3.00;;;1.70;;
76167;SDS011;64927;48.214;16.378;2024-01-15T01:30:20;5.07;;;2.83;;
76167;SDS011;64927;48.214;16.378;2024-01-15T01:32:45;3.65;;;2.10;;
76167;SDS011;64927;48.214;16.378;2024-01-15T01:35:12;2.53;;;1.88;;
76167;SDS011;64927;48.214;16.378;2024-01-15T01:37:37;4.80;;;2.53;;
76167;SDS011;64927;48.214;16.378;2024-01-15T01:40:03;5.97;;;2.42;;
76167;SDS011;64927;48.214;16.378;2024-01-15T01:42:30;3.70;;;2.28;;
76167;SDS011;64927;48.214;16.378;2024-01-15T01:44:55;4.13;;;2.15;;
76167;SDS011;64927;48.214;16.378;2024-01-15T01:47:21;4.78;;;2.15;;
76167;SDS011;64927;48.214;16.378;2024-01-15T01:49:47;3.30;;;2.15;;
76167;SDS011;64927;48.214;16.378;2024-01-15T01:52:15;7.82;;;3.40;;
76167;SDS011;64927;48.214;16.378;2024-01-15T01:54:40;3.25;;;2.08;;
76167;SDS011;64927;48.214;16.378;2024-01-15T01:57:07;4.10;;;2.78;;
76167;SDS011;64927;48.214;16.378;2024-01-15T01:59:34;8.13;;;3.10;;
76167;SDS011;64927;48.214;16.378;2024-01-15T02:02:00;3.75;;;2.30;;
76167;SDS011;64927;48.214;16.378;2024-01-15T02:04:28;2.58;;;1.85;;
76167;SDS011;64927;48.214;16.378;2024-01-15T02:06:56;4.93;;;2.47;;
76167;SDS011;64927;48.214;16.378;2024-01-15T02:09:24;6.95;;;2.90;;
76167;SDS011;64927;48.214;16.378;2024-01-15T02:11:50;5.97;;;2.78;;
76167;SDS011;64927;48.214;16.378;2024-01-15T02:14:15;9.25;;;2.63;;
76167;SDS011;64927;48.214;16.378;2024-01-15T02:16:41;5.07;;;2.10;;
76167;SDS011;64927;48.214;16.378;2024-01-15T02:19:07;4.22;;;2.70;;
76167;SDS011;64927;48.214;16.378;2024-01-15T02:21:39;9.95;;;2.95;;
76167;SDS011;64927;48.214;16.378;2024-01-15T02:24:07;6.80;;;2.95;;
76167;SDS011;64927;48.214;16.378;2024-01-15T02:26:32;5.72;;;2.72;;
76167;SDS011;64927;48.214;16.378;2024-01-15T02:29:00;5.07;;;2.70;;
76167;SDS011;64927;48.214;16.378;2024-01-15T02:31:27;8.32;;;3.13;;
76167;SDS011;64927;48.214;16.378;2024-01-15T02:33:52;6.35;;;2.28;;
76167;SDS011;64927;48.214;16.378;2024-01-15T02:36:21;6.57;;;3.33;;
76167;SDS011;64927;48.214;16.378;2024-01-15T02:38:46;5.30;;;3.25;;
76167;SDS011;64927;48.214;16.378;2024-01-15T02:41:14;5.80;;;2.72;;
76167;SDS011;64927;48.214;16.378;2024-01-15T02:43:42;5.70;;;3.33;;
76167;SDS011;64927;48.214;16.378;2024-01-15T02:46:08;6.53;;;3.55;;
76167;SDS011;64927;48.214;16.378;2024-01-15T02:48:33;5.78;;;3.28;;
76167;SDS011;64927;48.214;16.378;2024-01-15T02:51:02;11.05;;;3.75;;
76167;SDS011;64927;48.214;16.378;2024-01-15T02:53:27;6.82;;;3.42;;
76167;SDS011;64927;48.214;16.378;2024-01-15T02:55:55;4.10;;;2.35;;
76167;SDS011;64927;48.214;16.378;2024-01-15T02:58:21;8.60;;;3.38;;
76167;SDS011;64927;48.214;16.378;2024-01-15T03:00:47;6.30;;;2.63;;
76167;SDS011;64927;48.214;16.378;2024-01-15T03:03:12;6.28;;;3.35;;
76167;SDS011;64927;48.214;16.378;2024-01-15T03:05:38;6.22;;;2.65;;
76167;SDS011;64927;48.214;16.378;2024-01-15T03:08:03;6.75;;;2.22;;
76167;SDS011;64927;48.214;16.378;2024-01-15T03:10:29;5.32;;;3.05;;
76167;SDS011;64927;48.214;16.378;2024-01-15T03:12:59;6.47;;;2.92;;
76167;SDS011;64927;48.214;16.378;2024-01-15T03:15:25;8.07;;;3.78;;
76167;SDS011;64927;48.214;16.378;2024-01-15T03:17:50;9.20;;;3.17;;
76167;SDS011;64927;48.214;16.378;2024-01-15T03:20:16;10.77;;;4.50;;
76167;SDS011;64927;48.214;16.378;2024-01-15T03:22:42;6.20;;;3.05;;
76167;SDS011;64927;48.214;16.378;2024-01-15T03:25:07;8.75;;;3.65;;
76167;SDS011;64927;48.214;16.378;2024-01-15T03:27:33;10.15;;;3.20;;
76167;SDS011;64927;48.214;16.378;2024-01-15T03:30:01;8.73;;;4.63;;
76167;SDS011;64927;48.214;16.378;2024-01-15T03:32:27;6.32;;;3.15;;
76167;SDS011;64927;48.214;16.378;2024-01-15T03:34:53;5.53;;;3.05;;
76167;SDS011;64927;48.214;16.378;2024-01-15T03:37:21;5.28;;;2.65;;
76167;SDS011;64927;48.214;16.378;2024-01-15T03:39:46;6.53;;;2.55;;
76167;SDS011;64927;48.214;16.378;2024-01-15T03:42:12;5.30;;;2.95;;
76167;SDS011;64927;48.214;16.378;2024-01-15T03:44:37;6.10;;;3.13;;
76167;SDS011;64927;48.214;16.378;2024-01-15T03:47:03;6.07;;;2.60;;
76167;SDS011;64927;48.214;16.378;2024-01-15T03:49:29;6.30;;;2.72;;
76167;SDS011;64927;48.214;16.378;2024-01-15T03:51:57;6.55;;;2.65;;
76167;SDS011;64927;48.214;16.378;2024-01-15T03:54:22;5.85;;;2.83;;
76167;SDS011;64927;48.214;16.378;2024-01-15T03:56:48;7.10;;;4.30;;
76167;SDS011;64927;48.214;16.378;2024-01-15T03:59:14;7.47;;;3.97;;
76167;SDS011;64927;48.214;16.378;2024-01-15T04:01:47;8.98;;;3.15;;
76167;SDS011;64927;48.214;16.378;2024-01-15T04:04:14;5.50;;;3.67;;
76167;SDS011;64927;48.214;16.378;2024-01-15T04:06:40;8.38;;;3.85;;
76167;SDS011;64927;48.214;16.378;2024-01-15T04:09:05;6.88;;;3.72;;
76167;SDS011;64927;48.214;16.378;2024-01-15T04:11:34;7.57;;;3.90;;
76167;SDS011;64927;48.214;16.378;2024-01-15T04:13:59;14.32;;;3.53;;
76167;SDS011;64927;48.214;16.378;2024-01-15T04:16:25;8.85;;;4.07;;
76167;SDS011;64927;48.214;16.378;2024-01-15T04:18:50;6.10;;;3.35;;
76167;SDS011;64927;48.214;16.378;2024-01-15T04:21:17;9.00;;;3.90;;
76167;SDS011;64927;48.214;16.378;2024-01-15T04:23:43;4.35;;;2.72;;
76167;SDS011;64927;48.214;16.378;2024-01-15T04:26:09;5.82;;;3.85;;
76167;SDS011;64927;48.214;16.378;2024-01-15T04:28:37;9.30;;;3.65;;
76167;SDS011;64927;48.214;16.378;2024-01-15T04:31:02;2.97;;;2.65;;
76167;SDS011;64927;48.214;16.378;2024-01-15T04:33:28;9.52;;;3.92;;
76167;SDS011;64927;48.214;16.378;2024-01-15T04:35:54;5.00;;;3.50;;
76167;SDS011;64927;48.214;16.378;2024-01-15T04:38:19;7.22;;;3.15;;
76167;SDS011;64927;48.214;16.378;2024-01-15T04:40:45;8.88;;;3.25;;
76167;SDS011;64927;48.214;16.378;2024-01-15T04:43:10;5.70;;;3.90;;
76167;SDS011;64927;48.214;16.378;2024-01-15T04:45:38;6.13;;;3.10;;
76167;SDS011;64927;48.214;16.378;2024-01-15T04:48:04;7.13;;;3.92;;
76167;SDS011;64927;48.214;16.378;2024-01-15T04:50:32;25.42;;;3.28;;
76167;SDS011;64927;48.214;16.378;2024-01-15T04:52:57;7.60;;;3.63;;
76167;SDS011;64927;48.214;16.378;2024-01-15T04:55:23;10.02;;;3.92;;
76167;SDS011;64927;48.214;16.378;2024-01-15T04:57:49;5.00;;;2.90;;
76167;SDS011;64927;48.214;16.378;2024-01-15T05:00:16;7.00;;;4.38;;
76167;SDS011;64927;48.214;16.378;2024-01-15T05:02:42;8.57;;;3.72;;
76167;SDS011;64927;48.214;16.378;2024-01-15T05:05:08;9.13;;;3.42;;
76167;SDS011;64927;48.214;16.378;2024-01-15T05:07:33;4.30;;;2.33;;
76167;SDS011;64927;48.214;16.378;2024-01-15T05:09:59;7.10;;;3.75;;
76167;SDS011;64927;48.214;16.378;2024-01-15T05:12:27;7.68;;;3.30;;
76167;SDS011;64927;48.214;16.378;2024-01-15T05:14:53;5.32;;;2.92;;
76167;SDS011;64927;48.214;16.378;2024-01-15T05:17:21;8.63;;;4.63;;
76167;SDS011;64927;48.214;16.378;2024-01-15T05:19:46;5.75;;;3.40;;
76167;SDS011;64927;48.214;16.378;2024-01-15T05:22:12;6.70;;;3.35;;
76167;SDS011;64927;48.214;16.378;2024-01-15T05:24:37;7.38;;;4.10;;
76167;SDS011;64927;48.214;16.378;2024-01-15T05:27:03;8.25;;;3.97;;
76167;SDS011;64927;48.214;16.378;2024-01-15T05:29:29;7.07;;;3.45;;
76167;SDS011;64927;48.214;16.378;2024-01-15T05:31:54;6.35;;;3.72;;
76167;SDS011;64927;48.214;16.378;2024-01-15T05:34:20;6.28;;;3.42;;
76167;SDS011;64927;48.214;16.378;2024-01-15T05:36:46;8.00;;;4.30;;
76167;SDS011;64927;48.214;16.378;2024-01-15T05:39:12;9.30;;;3.42;;
76167;SDS011;64927;48.214;16.378;2024-01-15T05:41:38;6.85;;;3.83;;
76167;SDS011;64927;48.214;16.378;2024-01-15T05:44:06;8.77;;;4.00;;
76167;SDS011;64927;48.214;16.378;2024-01-15T05:46:31;6.32;;;3.92;;
76167;SDS011;64927;48.214;16.378;2024-01-15T05:48:57;9.00;;;3.72;;
76167;SDS011;64927;48.214;16.378;2024-01-15T05:51:22;10.82;;;3.55;;
76167;SDS011;64927;48.214;16.378;2024-01-15T05:53:48;4.13;;;2.60;;
76167;SDS011;64927;48.214;16.378;2024-01-15T05:56:14;9.05;;;3.58;;
76167;SDS011;64927;48.214;16.378;2024-01-15T05:58:39;5.70;;;2.70;;
76167;SDS011;64927;48.214;16.378;2024-01-15T06:01:05;8.52;;;4.15;;
76167;SDS011;64927;48.214;16.378;2024-01-15T06:03:30;5.25;;;3.13;;
76167;SDS011;64927;48.214;16.378;2024-01-15T06:05:58;7.40;;;3.63;;
76167;SDS011;64927;48.214;16.378;2024-01-15T06:08:24;9.38;;;3.53;;
76167;SDS011;64927;48.214;16.378;2024-01-15T06:10:51;10.90;;;3.40;;
76167;SDS011;64927;48.214;16.378;2024-01-15T06:13:17;5.25;;;3.08;;
76167;SDS011;64927;48.214;16.378;2024-01-15T06:15:42;5.30;;;2.83;;
76167;SDS011;64927;48.214;16.378;2024-01-15T06:18:08;6.60;;;3.47;;
76167;SDS011;64927;48.214;16.378;2024-01-15T06:20:33;7.15;;;3.33;;
76167;SDS011;64927;48.214;16.378;2024-01-15T06:22:59;5.80;;;2.70;;
76167;SDS011;64927;48.214;16.378;2024-01-15T06:25:25;6.05;;;2.78;;
76167;SDS011;64927;48.214;16.378;2024-01-15T06:27:50;7.65;;;2.83;;
76167;SDS011;64927;48.214;16.378;2024-01-15T06:30:16;5.00;;;3.25;;
76167;SDS011;64927;48.214;16.378;2024-01-15T06:32:44;9.63;;;2.75;;
76167;SDS011;64927;48.214;16.378;2024-01-15T06:35:09;7.47;;;3.20;;
76167;SDS011;64927;48.214;16.378;2024-01-15T06:37:36;6.10;;;3.92;;
76167;SDS011;64927;48.214;16.378;2024-01-15T06:40:02;6.45;;;2.88;;
76167;SDS011;64927;48.214;16.378;2024-01-15T06:42:28;9.50;;;2.97;;
76167;SDS011;64927;48.214;16.378;2024-01-15T06:44:53;4.68;;;2.88;;
76167;SDS011;64927;48.214;16.378;2024-01-15T06:47:21;6.03;;;2.97;;
76167;SDS011;64927;48.214;16.378;2024-01-15T06:49:47;9.13;;;3.72;;
76167;SDS011;64927;48.214;16.378;2024-01-15T06:52:15;6.57;;;3.15;;
76167;SDS011;64927;48.214;16.378;2024-01-15T06:54:41;6.28;;;3.67;;
76167;SDS011;64927;48.214;16.378;2024-01-15T06:57:06;10.55;;;4.22;;
76167;SDS011;64927;48.214;16.378;2024-01-15T06:59:33;10.95;;;4.05;;
76167;SDS011;64927;48.214;16.378;2024-01-15T07:02:00;5.60;;;2.67;;
76167;SDS011;64927;48.214;16.378;2024-01-15T07:04:26;5.68;;;3.33;;
76167;SDS011;64927;48.214;16.378;2024-01-15T07:06:51;7.20;;;3.13;;
76167;SDS011;64927;48.214;16.378;2024-01-15T07:09:18;8.77;;;4.38;;
76167;SDS011;64927;48.214;16.378;2024-01-15T07:11:44;4.75;;;2.65;;
76167;SDS011;64927;48.214;16.378;2024-01-15T07:14:11;3.83;;;2.60;;
76167;SDS011;64927;48.214;16.378;2024-01-15T07:16:37;8.60;;;3.65;;
76167;SDS011;64927;48.214;16.378;2024-01-15T07:19:03;7.07;;;3.28;;
76167;SDS011;64927;48.214;16.378;2024-01-15T07:21:28;5.03;;;2.70;;
76167;SDS011;64927;48.214;16.378;2024-01-15T07:23:55;9.75;;;2.40;;
76167;SDS011;64927;48.214;16.378;2024-01-15T07:26:22;5.90;;;3.00;;
76167;SDS011;64927;48.214;16.378;2024-01-15T07:28:48;5.35;;;2.50;;
76167;SDS011;64927;48.214;16.378;2024-01-15T07:31:16;6.75;;;3.33;;
76167;SDS011;64927;48.214;16.378;2024-01-15T07:33:42;8.75;;;2.90;;
76167;SDS011;64927;48.214;16.378;2024-01-15T07:36:08;5.30;;;2.70;;
76167;SDS011;64927;48.214;16.378;2024-01-15T07:38:36;5.50;;;2.53;;
76167;SDS011;64927;48.214;16.378;2024-01-15T07:41:02;5.68;;;2.78;;
76167;SDS011;64927;48.214;16.378;2024-01-15T07:43:27;4.88;;;2.70;;
76167;SDS011;64927;48.214;16.378;2024-01-15T07:45:53;6.47;;;2.80;;
76167;SDS011;64927;48.214;16.378;2024-01-15T07:48:18;5.03;;;2.38;;
76167;SDS011;64927;48.214;16.378;2024-01-15T07:50:45;3.92;;;3.25;;
76167;SDS011;64927;48.214;16.378;2024-01-15T07:53:11;7.95;;;2.42;;
76167;SDS011;64927;48.214;16.378;2024-01-15T07:55:36;9.15;;;4.10;;
76167;SDS011;64927;48.214;16.378;2024-01-15T07:58:02;7.60;;;4.20;;
76167;SDS011;64927;48.214;16.378;2024-01-15T08:00:28;6.20;;;3.15;;
76167;SDS011;64927;48.214;16.378;2024-01-15T08:02:56;5.70;;;2.30;;
76167;SDS011;64927;48.214;16.378;2024-01-15T08:05:21;9.43;;;3.40;;
76167;SDS011;64927;48.214;16.378;2024-01-15T08:07:47;8.02;;;3.70;;
76167;SDS011;64927;48.214;16.378;2024-01-15T08:10:13;7.10;;;3.67;;
76167;SDS011;64927;48.214;16.378;2024-01-15T08:12:39;6.28;;;3.17;;
76167;SDS011;64927;48.214;16.378;2024-01-15T08:15:04;5.10;;;3.22;;
76167;SDS011;64927;48.214;16.378;2024-01-15T08:17:30;5.82;;;2.75;;
76167;SDS011;64927;48.214;16.378;2024-01-15T08:19:57;7.35;;;3.40;;
76167;SDS011;64927;48.214;16.378;2024-01-15T08:22:22;5.88;;;2.70;;
76167;SDS011;64927;48.214;16.378;2024-01-15T08:24:48;7.00;;;2.88;;
76167;SDS011;64927;48.214;16.378;2024-01-15T08:27:14;5.20;;;2.60;;
76167;SDS011;64927;48.214;16.378;2024-01-15T08:29:40;11.95;;;2.80;;
76167;SDS011;64927;48.214;16.378;2024-01-15T08:32:05;2.08;;;1.45;;
76167;SDS011;64927;48.214;16.378;2024-01-15T08:34:31;4.50;;;2.33;;
76167;SDS011;64927;48.214;16.378;2024-01-15T08:36:56;11.35;;;3.03;;
76167;SDS011;64927;48.214;16.378;2024-01-15T08:39:22;5.10;;;2.83;;
76167;SDS011;64927;48.214;16.378;2024-01-15T08:41:47;8.85;;;3.35;;
76167;SDS011;64927;48.214;16.378;2024-01-15T08:44:13;6.78;;;2.20;;
76167;SDS011;64927;48.214;16.378;2024-01-15T08:46:39;4.03;;;1.95;;
76167;SDS011;64927;48.214;16.378;2024-01-15T08:49:04;3.28;;;1.98;;
76167;SDS011;64927;48.214;16.378;2024-01-15T08:51:30;5.53;;;3.20;;
76167;SDS011;64927;48.214;16.378;2024-01-15T08:53:56;6.53;;;3.08;;
76167;SDS011;64927;48.214;16.378;2024-01-15T08:56:23;6.97;;;3.03;;
76167;SDS011;64927;48.214;16.378;2024-01-15T08:58:48;5.85;;;2.83;;
76167;SDS011;64927;48.214;16.378;2024-01-15T09:01:14;5.35;;;1.98;;
76167;SDS011;64927;48.214;16.378;2024-01-15T09:03:40;4.97;;;1.75;;
76167;SDS011;64927;48.214;16.378;2024-01-15T09:06:08;7.18;;;3.38;;
76167;SDS011;64927;48.214;16.378;2024-01-15T09:08:34;4.40;;;2.40;;
76167;SDS011;64927;48.214;16.378;2024-01-15T09:11:01;5.75;;;2.33;;
76167;SDS011;64927;48.214;16.378;2024-01-15T09:13:28;9.88;;;4.43;;
76167;SDS011;64927;48.214;16.378;2024-01-15T09:15:53;4.53;;;1.80;;
76167;SDS011;64927;48.214;16.378;2024-01-15T09:18:19;4.38;;;1.95;;
76167;SDS011;64927;48.214;16.378;2024-01-15T09:20:44;5.82;;;2.35;;
76167;SDS011;64927;48.214;16.378;2024-01-15T09:23:10;4.72;;;1.63;;
76167;SDS011;64927;48.214;16.378;2024-01-15T09:25:36;5.50;;;2.33;;
76167;SDS011;64927;48.214;16.378;2024-01-15T09:28:01;3.10;;;1.80;;
76167;SDS011;64927;48.214;16.378;2024-01-15T09:30:35;4.13;;;2.35;;
76167;SDS011;64927;48.214;16.378;2024-01-15T09:33:01;6.20;;;2.58;;
76167;SDS011;64927;48.214;16.378;2024-01-15T09:35:27;3.80;;;2.28;;
76167;SDS011;64927;48.214;16.378;2024-01-15T09:37:52;6.15;;;2.45;;
76167;SDS011;64927;48.214;16.378;2024-01-15T09:40:18;4.90;;;2.40;;
76167;SDS011;64927;48.214;16.378;2024-01-15T09:42:46;3.20;;;1.98;;
76167;SDS011;64927;48.214;16.378;2024-01-15T09:45:14;4.13;;;2.17;;
76167;SDS011;64927;48.214;16.378;2024-01-15T09:47:43;2.85;;;2.05;;
76167;SDS011;64927;48.214;16.378;2024-01-15T09:50:09;7.15;;;2.72;;
76167;SDS011;64927;48.214;16.378;2024-01-15T09:52:35;3.60;;;2.17;;
76167;SDS011;64927;48.214;16.378;2024-01-15T09:55:01;5.28;;;2.63;;
76167;SDS011;64927;48.214;16.378;2024-01-15T09:57:30;6.88;;;1.88;;
76167;SDS011;64927;48.214;16.378;2024-01-15T09:59:56;8.55;;;3.13;;
76167;SDS011;64927;48.214;16.378;2024-01-15T10:02:24;6.88;;;2.70;;
76167;SDS011;64927;48.214;16.378;2024-01-15T10:04:50;3.85;;;2.13;;
76167;SDS011;64927;48.214;16.378;2024-01-15T10:07:16;7.28;;;2.50;;
76167;SDS011;64927;48.214;16.378;2024-01-15T10:09:44;9.10;;;2.47;;
76167;SDS011;64927;48.214;16.378;2024-01-15T10:12:10;5.55;;;2.58;;
76167;SDS011;64927;48.214;16.378;2024-01-15T10:14:36;5.47;;;2.40;;
76167;SDS011;64927;48.214;16.378;2024-01-15T10:17:11;2.47;;;1.63;;
76167;SDS011;64927;48.214;16.378;2024-01-15T10:19:43;5.25;;;1.67;;
76167;SDS011;64927;48.214;16.378;2024-01-15T10:22:14;4.00;;;1.65;;
76167;SDS011;64927;48.214;16.378;2024-01-15T10:24:42;4.70;;;1.60;;
76167;SDS011;64927;48.214;16.378;2024-01-15T10:27:08;3.28;;;1.73;;
76167;SDS011;64927;48.214;16.378;2024-01-15T10:29:34;5.63;;;2.47;;
76167;SDS011;64927;48.214;16.378;2024-01-15T10:32:01;4.78;;;1.75;;
76167;SDS011;64927;48.214;16.378;2024-01-15T10:34:40;2.47;;;1.33;;
76167;SDS011;64927;48.214;16.378;2024-01-15T10:37:09;1.38;;;1.20;;
76167;SDS011;64927;48.214;16.378;2024-01-15T10:39:35;3.78;;;1.65;;
76167;SDS011;64927;48.214;16.378;2024-01-15T10:42:01;4.65;;;1.42;;
76167;SDS011;64927;48.214;16.378;2024-01-15T10:44:28;4.55;;;1.75;;
76167;SDS011;64927;48.214;16.378;2024-01-15T10:46:56;5.10;;;1.65;;
76167;SDS011;64927;48.214;16.378;2024-01-15T10:49:22;1.05;;;0.80;;
76167;SDS011;64927;48.214;16.378;2024-01-15T10:51:51;2.80;;;1.55;;
76167;SDS011;64927;48.214;16.378;2024-01-15T10:54:22;3.60;;;1.75;;
76167;SDS011;64927;48.214;16.378;2024-01-15T10:56:49;1.48;;;1.02;;
76167;SDS011;64927;48.214;16.378;2024-01-15T10:59:16;4.03;;;2.20;;
76167;SDS011;64927;48.214;16.378;2024-01-15T11:01:44;1.98;;;1.52;;
76167;SDS011;64927;48.214;16.378;2024-01-15T11:04:11;3.50;;;1.70;;
76167;SDS011;64927;48.214;16.378;2024-01-15T11:06:42;2.00;;;1.27;;
76167;SDS011;64927;48.214;16.378;2024-01-15T11:09:09;3.30;;;1.90;;
76167;SDS011;64927;48.214;16.378;2024-01-15T11:11:37;4.50;;;1.35;;
76167;SDS011;64927;48.214;16.378;2024-01-15T11:14:08;2.25;;;1.52;;
76167;SDS011;64927;48.214;16.378;2024-01-15T11:19:21;3.17;;;1.60;;
76167;SDS011;64927;48.214;16.378;2024-01-15T11:21:47;5.55;;;1.98;;
76167;SDS011;64927;48.214;16.378;2024-01-15T11:24:33;3.05;;;1.92;;
76167;SDS011;64927;48.214;16.378;2024-01-15T11:26:59;2.10;;;1.20;;
76167;SDS011;64927;48.214;16.378;2024-01-15T11:29:28;5.88;;;1.40;;
76167;SDS011;64927;48.214;16.378;2024-01-15T11:37:19;3.85;;;1.40;;
76167;SDS011;64927;48.214;16.378;2024-01-15T11:39:46;3.53;;;2.28;;
76167;SDS011;64927;48.214;16.378;2024-01-15T11:42:12;2.78;;;1.63;;
76167;SDS011;64927;48.214;16.378;2024-01-15T11:44:39;3.40;;;1.67;;
76167;SDS011;64927;48.214;16.378;2024-01-15T11:47:06;1.92;;;1.40;;
76167;SDS011;64927;48.214;16.378;2024-01-15T11:52:09;1.33;;;1.20;;
76167;SDS011;64927;48.214;16.378;2024-01-15T11:54:37;3.28;;;1.50;;
76167;SDS011;64927;48.214;16.378;2024-01-15T11:57:08;1.75;;;1.20;;
76167;SDS011;64927;48.214;16.378;2024-01-15T11:59:40;2.53;;;1.15;;
76167;SDS011;64927;48.214;16.378;2024-01-15T12:02:07;3.92;;;1.67;;
76167;SDS011;64927;48.214;16.378;2024-01-15T12:04:32;2.90;;;1.65;;
76167;SDS011;64927;48.214;16.378;2024-01-15T12:06:58;3.53;;;1.33;;
76167;SDS011;64927;48.214;16.378;2024-01-15T12:09:23;3.72;;;2.00;;
76167;SDS011;64927;48.214;16.378;2024-01-15T12:11:54;4.75;;;2.22;;
76167;SDS011;64927;48.214;16.378;2024-01-15T12:14:30;2.97;;;1.55;;
76167;SDS011;64927;48.214;16.378;2024-01-15T12:16:57;1.75;;;1.10;;
76167;SDS011;64927;48.214;16.378;2024-01-15T12:19:22;3.42;;;2.13;;
76167;SDS011;64927;48.214;16.378;2024-01-15T12:21:50;2.22;;;1.35;;
76167;SDS011;64927;48.214;16.378;2024-01-15T12:24:16;0.80;;;0.65;;
76167;SDS011;64927;48.214;16.378;2024-01-15T12:26:43;5.35;;;1.95;;
76167;SDS011;64927;48.214;16.378;2024-01-15T12:29:10;1.98;;;1.30;;
76167;SDS011;64927;48.214;16.378;2024-01-15T12:31:38;1.40;;;1.17;;
76167;SDS011;64927;48.214;16.378;2024-01-15T12:34:04;1.70;;;1.50;;
76167;SDS011;64927;48.214;16.378;2024-01-15T12:36:31;2.03;;;1.38;;
76167;SDS011;64927;48.214;16.378;2024-01-15T12:39:00;4.95;;;1.15;;
76167;SDS011;64927;48.214;16.378;2024-01-15T12:41:25;2.92;;;1.70;;
76167;SDS011;64927;48.214;16.378;2024-01-15T12:43:51;1.42;;;0.77;;
76167;SDS011;64927;48.214;16.378;2024-01-15T12:46:17;5.40;;;1.35;;
76167;SDS011;64927;48.214;16.378;2024-01-15T12:48:45;2.97;;;1.80;;
76167;SDS011;64927;48.214;16.378;2024-01-15T12:51:13;2.33;;;1.23;;
76167;SDS011;64927;48.214;16.378;2024-01-15T12:53:40;2.13;;;1.50;;
76167;SDS011;64927;48.214;16.378;2024-01-15T12:56:06;2.78;;;1.20;;
76167;SDS011;64927;48.214;16.378;2024-01-15T12:58:34;4.10;;;1.58;;
76167;SDS011;64927;48.214;16.378;2024-01-15T13:01:00;2.05;;;1.15;;
76167;SDS011;64927;48.214;16.378;2024-01-15T13:03:26;2.50;;;1.20;;
76167;SDS011;64927;48.214;16.378;2024-01-15T13:05:52;2.50;;;1.10;;
76167;SDS011;64927;48.214;16.378;2024-01-15T13:08:17;1.50;;;0.90;;
76167;SDS011;64927;48.214;16.378;2024-01-15T13:10:43;1.20;;;1.10;;
76167;SDS011;64927;48.214;16.378;2024-01-15T13:13:09;2.08;;;1.13;;
76167;SDS011;64927;48.214;16.378;2024-01-15T13:15:35;2.72;;;1.58;;
76167;SDS011;64927;48.214;16.378;2024-01-15T13:18:01;1.33;;;0.88;;
76167;SDS011;64927;48.214;16.378;2024-01-15T13:20:27;9.48;;;1.08;;
76167;SDS011;64927;48.214;16.378;2024-01-15T13:22:52;1.92;;;1.20;;
76167;SDS011;64927;48.214;16.378;2024-01-15T13:25:20;1.25;;;0.63;;
76167;SDS011;64927;48.214;16.378;2024-01-15T13:27:46;2.35;;;1.38;;
76167;SDS011;64927;48.214;16.378;2024-01-15T13:30:11;2.92;;;1.33;;
76167;SDS011;64927;48.214;16.378;2024-01-15T13:32:38;2.22;;;1.20;;
76167;SDS011;64927;48.214;16.378;2024-01-15T13:35:03;3.08;;;0.95;;
76167;SDS011;64927;48.214;16.378;2024-01-15T13:37:32;2.50;;;1.70;;
76167;SDS011;64927;48.214;16.378;2024-01-15T13:39:57;2.05;;;1.15;;
76167;SDS011;64927;48.214;16.378;2024-01-15T13:42:23;1.20;;;0.80;;
76167;SDS011;64927;48.214;16.378;2024-01-15T13:44:49;2.45;;;1.77;;
76167;SDS011;64927;48.214;16.378;2024-01-15T13:47:15;2.30;;;1.50;;
76167;SDS011;64927;48.214;16.378;2024-01-15T13:49:40;3.42;;;1.98;;
76167;SDS011;64927;48.214;16.378;2024-01-15T13:52:06;2.15;;;1.13;;
76167;SDS011;64927;48.214;16.378;2024-01-15T13:54:32;4.95;;;1.63;;
76167;SDS011;64927;48.214;16.378;2024-01-15T13:56:57;1.45;;;0.90;;
76167;SDS011;64927;48.214;16.378;2024-01-15T13:59:26;4.88;;;2.00;;
76167;SDS011;64927;48.214;16.378;2024-01-15T14:01:52;3.33;;;1.15;;
76167;SDS011;64927;48.214;16.378;2024-01-15T14:04:20;1.90;;;1.23;;
76167;SDS011;64927;48.214;16.378;2024-01-15T14:06:46;1.13;;;0.60;;
76167;SDS011;64927;48.214;16.378;2024-01-15T14:09:11;1.90;;;1.15;;
76167;SDS011;64927;48.214;16.378;2024-01-15T14:11:39;1.30;;;0.82;;
76167;SDS011;64927;48.214;16.378;2024-01-15T14:14:05;1.77;;;1.30;;
76167;SDS011;64927;48.214;16.378;2024-01-15T14:16:32;4.30;;;1.20;;
76167;SDS011;64927;48.214;16.378;2024-01-15T14:18:58;1.83;;;1.40;;
76167;SDS011;64927;48.214;16.378;2024-01-15T14:21:24;1.65;;;0.82;;
76167;SDS011;64927;48.214;16.378;2024-01-15T14:23:49;0.75;;;0.55;;
76167;SDS011;64927;48.214;16.378;2024-01-15T14:26:15;1.77;;;1.10;;
76167;SDS011;64927;48.214;16.378;2024-01-15T14:28:41;1.23;;;0.63;;
76167;SDS011;64927;48.214;16.378;2024-01-15T14:31:06;1.27;;;0.75;;
76167;SDS011;64927;48.214;16.378;2024-01-15T14:33:34;3.45;;;1.15;;
76167;SDS011;64927;48.214;16.378;2024-01-15T14:36:00;2.30;;;1.00;;
76167;SDS011;64927;48.214;16.378;2024-01-15T14:38:26;1.65;;;0.82;;